Time;durP1;ratioP1;P1;durP2;ratioP2;P2;SDS_P1;SDS_P2;PMS_P1;PMS_P2;Temp;Humidity;BMP_temperature;BMP_pressure;BME280_temperature;BME280_humidity;BME280_pressure;Samples;Min_cycle;Max_cycle;Signal;HPM_P1;HPM_P2
2021/04/21 00:54:06;;;;;;;;;5.75;5.75;;;;;14.94;49.54;98117.78;4366916;23;103816;-96
2021/04/21 00:56:47;;;;;;;;;10.75;7.75;;;;;14.99;49.72;98116.00;4786842;29;102429;-96
2021/04/21 00:59:33;;;;;;;;;8.75;7.00;;;;;14.98;49.37;98125.22;4795809;29;102278;-96
2021/04/21 01:02:00;;;;;;;;;7.00;7.00;;;;;14.89;49.82;98107.63;4673653;29;108379;-96
2021/04/21 01:04:28;;;;;;;;;9.25;8.00;;;;;14.92;49.50;98100.84;4775116;29;102709;-96
2021/04/21 01:06:58;;;;;;;;;11.00;10.50;;;;;14.85;49.59;98106.44;4781882;29;104827;-96
2021/04/21 01:09:25;;;;;;;;;8.25;7.00;;;;;14.91;49.54;98110.91;4770001;29;103613;-96
2021/04/21 01:12:01;;;;;;;;;9.75;8.50;;;;;14.91;49.63;98105.47;4749636;29;103310;-96
2021/04/21 01:14:30;;;;;;;;;8.75;7.00;;;;;14.90;49.54;98122.88;4741490;29;102734;-96
2021/04/21 01:16:59;;;;;;;;;7.50;6.75;;;;;14.89;49.50;98110.34;4736976;29;102257;-96
2021/04/21 01:19:35;;;;;;;;;11.00;9.75;;;;;14.90;49.69;98108.44;4704965;29;102422;-96
2021/04/21 01:22:15;;;;;;;;;11.50;8.75;;;;;14.90;49.59;98112.00;4751742;29;103437;-96
2021/04/21 01:24:59;;;;;;;;;8.50;7.25;;;;;14.89;49.15;98109.50;4731482;29;104298;-96
2021/04/21 01:27:45;;;;;;;;;9.00;7.50;;;;;14.96;49.17;98121.91;4699998;29;104389;-96
2021/04/21 01:30:16;;;;;;;;;9.75;8.00;;;;;14.89;49.76;98104.91;4742916;29;103809;-96
2021/04/21 01:32:46;;;;;;;;;8.00;6.75;;;;;14.87;49.19;98108.91;4731897;29;103507;-96
2021/04/21 01:35:14;;;;;;;;;7.50;6.00;;;;;14.90;49.55;98109.28;4705979;29;102470;-96
2021/04/21 01:37:41;;;;;;;;;7.00;6.25;;;;;14.86;49.48;98094.47;4745056;29;102175;-96
2021/04/21 01:40:11;;;;;;;;;7.50;7.50;;;;;14.86;48.94;98104.56;4759629;29;102207;-96
2021/04/21 01:42:43;;;;;;;;;8.75;8.00;;;;;14.87;49.73;98123.34;4732928;29;104405;-96
2021/04/21 01:45:12;;;;;;;;;9.00;7.00;;;;;14.86;49.49;98127.13;4728775;29;102644;-96
2021/04/21 01:47:39;;;;;;;;;8.25;5.75;;;;;14.92;49.52;98117.19;4744066;29;103672;-96
2021/04/21 01:50:08;;;;;;;;;11.25;7.75;;;;;14.90;49.14;98111.16;4778271;29;103666;-96
2021/04/21 01:52:47;;;;;;;;;7.50;7.25;;;;;14.85;49.31;98106.44;4766840;29;102684;-96
2021/04/21 01:55:21;;;;;;;;;8.75;7.25;;;;;14.92;49.29;98118.00;4779272;29;102569;-96
2021/04/21 01:58:17;;;;;;;;;6.75;5.50;;;;;14.91;49.19;98105.47;4752228;29;102970;-96
2021/04/21 02:00:55;;;;;;;;;7.25;6.00;;;;;14.86;49.59;98113.53;4699192;29;103938;-96
2021/04/21 02:03:33;;;;;;;;;8.75;7.50;;;;;14.83;49.23;98108.56;4757146;29;108208;-96
2021/04/21 02:06:16;;;;;;;;;9.75;6.25;;;;;14.91;49.50;98112.81;4759583;29;102461;-96
2021/04/21 02:08:52;;;;;;;;;8.25;8.00;;;;;14.90;49.80;98114.72;4771054;29;102160;-96
2021/04/21 02:11:21;;;;;;;;;8.50;7.50;;;;;14.82;49.43;98090.56;4773545;29;103784;-96
2021/04/21 02:14:03;;;;;;;;;8.00;7.25;;;;;14.84;49.58;98110.22;4747284;29;107649;-96
2021/04/21 02:16:52;;;;;;;;;11.00;8.50;;;;;14.90;48.85;98120.16;4679036;29;103578;-96
2021/04/21 02:19:52;;;;;;;;;7.25;7.25;;;;;14.89;49.04;98113.06;4755398;29;102320;-96
2021/04/21 02:22:47;;;;;;;;;8.00;7.00;;;;;14.90;49.44;98112.00;4720966;29;102429;-96
2021/04/21 02:26:08;;;;;;;;;7.00;6.75;;;;;14.90;48.97;98119.34;4715435;29;106794;-96
2021/04/21 02:29:01;;;;;;;;;9.25;8.00;;;;;14.87;49.18;98117.06;4608289;29;102686;-96
2021/04/21 02:31:52;;;;;;;;;8.75;7.75;;;;;14.87;49.51;98120.63;4678060;29;103948;-96
2021/04/21 02:34:29;;;;;;;;;9.00;8.75;;;;;14.86;49.49;98124.41;4778600;29;102738;-96
2021/04/21 02:37:16;;;;;;;;;8.75;7.75;;;;;14.83;49.71;98103.13;4748577;29;106804;-96
2021/04/21 02:40:11;;;;;;;;;6.75;6.75;;;;;14.86;49.29;98112.72;4726093;29;103984;-96
2021/04/21 02:42:48;;;;;;;;;4.50;4.50;;;;;14.84;49.64;98109.41;4677702;29;104343;-96
2021/04/21 02:45:33;;;;;;;;;8.25;6.75;;;;;14.84;49.20;98121.13;4763915;29;102298;-96
2021/04/21 02:48:13;;;;;;;;;7.75;7.75;;;;;14.81;49.26;98113.44;4715674;29;108227;-96
2021/04/21 02:50:55;;;;;;;;;8.25;7.00;;;;;14.84;49.63;98120.28;4731222;29;102651;-96
2021/04/21 02:53:45;;;;;;;;;6.75;6.00;;;;;14.80;48.71;98117.22;4763690;29;103748;-96
2021/04/21 02:56:41;;;;;;;;;10.25;8.75;;;;;14.82;48.93;98123.25;4712186;29;102364;-96
2021/04/21 02:59:30;;;;;;;;;7.25;7.00;;;;;14.83;49.51;98113.19;4676057;29;108756;-97
2021/04/21 03:02:13;;;;;;;;;9.00;6.75;;;;;14.78;49.47;98105.72;4770095;29;102674;-96
2021/04/21 03:05:06;;;;;;;;;8.75;7.25;;;;;14.73;49.22;98105.63;4761240;29;103134;-96
2021/04/21 03:07:46;;;;;;;;;10.75;8.00;;;;;14.74;49.38;98101.84;4715512;29;102487;-96
2021/04/21 03:10:14;;;;;;;;;7.75;7.75;;;;;14.76;49.10;98097.00;4766887;29;102622;-96
2021/04/21 03:12:48;;;;;;;;;8.75;7.50;;;;;14.81;49.36;98110.72;4747832;29;102523;-96
2021/04/21 03:15:20;;;;;;;;;8.00;6.75;;;;;14.76;49.43;98102.44;4748758;29;101901;-96
2021/04/21 03:17:47;;;;;;;;;9.25;7.50;;;;;14.76;49.46;98102.44;4772872;29;102378;-96
2021/04/21 03:20:18;;;;;;;;;6.75;5.25;;;;;14.72;49.52;98098.56;4766532;29;104064;-96
2021/04/21 03:22:58;;;;;;;;;9.50;7.25;;;;;14.74;49.26;98107.28;4782968;29;102825;-96
2021/04/21 03:25:35;;;;;;;;;10.00;7.00;;;;;14.73;49.63;98103.72;4743190;29;102774;-96
2021/04/21 03:28:04;;;;;;;;;6.50;6.50;;;;;14.73;49.35;98094.75;4700347;29;103689;-96
2021/04/21 03:30:32;;;;;;;;;11.50;9.00;;;;;14.70;49.44;98092.50;4736868;29;103692;-96
2021/04/21 03:33:10;;;;;;;;;12.50;10.25;;;;;14.73;49.42;98102.91;4750254;29;102309;-96
2021/04/21 03:35:38;;;;;;;;;8.75;8.00;;;;;14.69;49.12;98091.69;4761722;29;102301;-96
2021/04/21 03:38:07;;;;;;;;;10.75;8.00;;;;;14.71;49.13;98094.16;4763362;29;104148;-96
2021/04/21 03:40:35;;;;;;;;;7.00;6.00;;;;;14.68;49.22;98092.72;4769569;29;103809;-96
2021/04/21 03:43:06;;;;;;;;;7.75;6.25;;;;;14.69;48.93;98099.84;4786567;29;104600;-96
2021/04/21 03:45:33;;;;;;;;;6.25;6.00;;;;;14.73;49.30;98113.78;4758885;29;103458;-96
2021/04/21 03:48:00;;;;;;;;;8.00;7.00;;;;;14.75;49.32;98117.13;4764895;29;102239;-96
2021/04/21 03:50:27;;;;;;;;;10.50;9.00;;;;;14.75;49.23;98114.38;4754823;29;103088;-96
2021/04/21 03:53:00;;;;;;;;;6.50;6.00;;;;;14.69;48.91;98112.63;4779175;29;102130;-96
2021/04/21 03:55:27;;;;;;;;;7.00;7.00;;;;;14.72;49.64;98110.22;4728992;29;102718;-96
2021/04/21 03:57:57;;;;;;;;;8.50;7.25;;;;;14.71;49.38;98111.31;4746243;29;102779;-96
2021/04/21 04:00:24;;;;;;;;;5.75;4.75;;;;;14.71;49.73;98115.94;4752234;29;110213;-96
2021/04/21 04:02:59;;;;;;;;;8.75;8.00;;;;;14.74;48.99;98120.91;4754771;29;103687;-96
2021/04/21 04:05:59;;;;;;;;;7.00;7.00;;;;;14.69;48.83;98118.06;4754342;29;102560;-96
2021/04/21 04:08:26;;;;;;;;;8.00;7.50;;;;;14.69;48.97;98123.50;4743453;29;105714;-96
2021/04/21 04:10:54;;;;;;;;;8.50;7.75;;;;;14.68;49.45;98119.13;4728262;29;108210;-96
2021/04/21 04:13:21;;;;;;;;;5.00;5.00;;;;;14.69;49.23;98126.22;4752462;29;103127;-96
2021/04/21 04:15:50;;;;;;;;;6.75;6.00;;;;;14.63;49.41;98119.03;4723396;29;103405;-96
2021/04/21 04:18:18;;;;;;;;;9.25;7.00;;;;;14.63;49.23;98113.59;4738384;29;102606;-96
2021/04/21 04:20:45;;;;;;;;;6.00;6.00;;;;;14.64;49.19;98117.94;4702703;29;103056;-96
2021/04/21 04:23:12;;;;;;;;;8.50;7.50;;;;;14.65;48.86;98109.56;4740969;29;102395;-96
2021/04/21 04:25:46;;;;;;;;;7.00;6.75;;;;;14.65;48.99;98108.72;4750673;29;102827;-96
2021/04/21 04:28:13;;;;;;;;;9.50;6.50;;;;;14.63;48.75;98113.59;4761025;29;102600;-96
2021/04/21 04:30:41;;;;;;;;;8.50;7.00;;;;;14.66;49.33;98126.72;4750955;29;105316;-96
2021/04/21 04:33:09;;;;;;;;;9.25;7.50;;;;;14.66;49.28;98129.44;4743981;29;102929;-96
2021/04/21 04:35:36;;;;;;;;;10.75;9.25;;;;;14.63;49.40;98119.03;4740645;29;102864;-96
2021/04/21 04:38:03;;;;;;;;;11.25;8.00;;;;;14.64;49.62;98126.09;4750379;29;102049;-96
2021/04/21 04:40:31;;;;;;;;;8.00;7.00;;;;;14.64;49.28;98112.50;4760362;29;103862;-96
2021/04/21 04:42:59;;;;;;;;;11.00;8.50;;;;;14.63;49.47;98113.59;4748182;29;102820;-96
2021/04/21 04:45:31;;;;;;;;;4.00;3.25;;;;;14.63;48.64;98121.75;4744108;29;102326;-96
2021/04/21 04:48:03;;;;;;;;;9.00;8.50;;;;;14.65;49.39;98134.03;4756433;29;102295;-96
2021/04/21 04:50:31;;;;;;;;;8.00;7.25;;;;;14.64;49.19;98128.81;4726702;29;102764;-96
2021/04/21 04:52:59;;;;;;;;;7.75;6.00;;;;;14.62;48.95;98128.25;4716860;29;102135;-96
2021/04/21 04:55:27;;;;;;;;;7.00;6.00;;;;;14.58;49.35;98110.75;4742271;29;103556;-96
2021/04/21 04:57:57;;;;;;;;;7.50;7.00;;;;;14.67;48.90;98136.53;4747436;29;102411;-96
2021/04/21 05:00:27;;;;;;;;;8.00;7.25;;;;;14.61;49.08;98126.59;4717844;29;107719;-96
2021/04/21 05:03:11;;;;;;;;;7.75;7.25;;;;;14.69;49.14;98131.66;4721245;29;104593;-96
2021/04/21 05:05:38;;;;;;;;;9.25;7.25;;;;;14.61;49.13;98121.16;4704181;29;102721;-96
2021/04/21 05:08:07;;;;;;;;;6.50;6.00;;;;;14.63;48.97;98121.75;4698877;29;102281;-96
2021/04/21 05:10:36;;;;;;;;;6.00;6.00;;;;;14.61;49.18;98123.88;4699268;29;103471;-96
2021/04/21 05:13:05;;;;;;;;;7.00;6.50;;;;;14.66;48.88;98132.16;4730915;29;102017;-96
2021/04/21 05:15:38;;;;;;;;;7.25;6.25;;;;;14.66;49.29;98138.44;4683083;29;104485;-96
2021/04/21 05:18:43;;;;;;;;;8.50;6.25;;;;;14.66;48.78;98129.44;4643257;29;102302;-96
2021/04/21 05:21:42;;;;;;;;;11.25;9.25;;;;;14.65;49.44;98136.75;4662504;29;109988;-96
2021/04/21 05:24:22;;;;;;;;;8.25;6.50;;;;;14.64;49.25;98145.97;4630970;29;102503;-96
2021/04/21 05:27:08;;;;;;;;;9.00;7.50;;;;;14.59;48.98;98128.75;4681055;29;102401;-96
2021/04/21 05:29:54;;;;;;;;;9.75;8.00;;;;;14.61;49.34;98130.16;4591144;29;102443;-96
2021/04/21 05:32:44;;;;;;;;;7.00;7.00;;;;;14.65;49.07;98138.66;4688933;29;109087;-96
2021/04/21 05:35:55;;;;;;;;;7.25;7.00;;;;;14.60;48.93;98144.81;4625137;29;102182;-96
2021/04/21 05:38:40;;;;;;;;;8.50;7.25;;;;;14.63;49.24;98147.03;4674393;29;102901;-96
2021/04/21 05:41:35;;;;;;;;;6.50;6.25;;;;;14.65;48.99;98154.97;4610317;29;103434;-96
2021/04/21 05:44:52;;;;;;;;;6.00;6.00;;;;;14.64;49.08;98151.44;4669792;29;107846;-96
2021/04/21 05:47:48;;;;;;;;;8.50;7.50;;;;;14.65;49.00;98139.47;4590402;29;102448;-96
2021/04/21 05:50:57;;;;;;;;;6.00;6.00;;;;;14.64;49.28;98147.88;4632830;29;102505;-96
2021/04/21 05:53:59;;;;;;;;;7.50;7.50;;;;;14.63;48.94;98147.03;4602726;29;102513;-96
2021/04/21 05:56:56;;;;;;;;;6.75;5.50;;;;;14.64;49.46;98158.75;4639380;29;107641;-96
2021/04/21 06:00:00;;;;;;;;;6.25;6.25;;;;;14.63;49.11;98151.69;4638143;29;102806;-96
2021/04/21 06:02:28;;;;;;;;;5.25;4.75;;;;;14.55;48.78;98138.41;4665600;29;102319;-96
2021/04/21 06:05:09;;;;;;;;;6.50;5.25;;;;;14.55;48.81;98144.69;4691238;29;102770;-96
2021/04/21 06:07:36;;;;;;;;;8.00;6.50;;;;;14.56;49.68;98145.53;4661877;29;109578;-96
2021/04/21 06:10:23;;;;;;;;;6.50;6.25;;;;;14.59;49.31;98156.75;4761155;29;102087;-96
2021/04/21 06:12:55;;;;;;;;;7.75;5.75;;;;;14.55;49.08;98150.13;4706554;29;102584;-96
2021/04/21 06:15:28;;;;;;;;;8.25;7.00;;;;;14.55;48.79;98150.13;4704549;29;102526;-96
2021/04/21 06:17:57;;;;;;;;;6.00;5.75;;;;;14.62;49.11;98161.75;4755087;29;107500;-96
2021/04/21 06:20:37;;;;;;;;;7.50;7.00;;;;;14.64;49.50;98156.03;4689311;29;102284;-96
2021/04/21 06:23:23;;;;;;;;;6.75;6.50;;;;;14.58;49.17;98160.56;4673610;29;102493;-96
2021/04/21 06:26:02;;;;;;;;;6.75;6.00;;;;;14.57;49.22;98152.63;4689559;29;102334;-96
2021/04/21 06:28:29;;;;;;;;;7.50;6.50;;;;;14.59;49.20;98148.59;4712362;29;107774;-96
2021/04/21 06:31:33;;;;;;;;;10.25;7.75;;;;;14.62;48.77;98150.03;4703268;29;102208;-96
2021/04/21 06:34:02;;;;;;;;;7.00;7.00;;;;;14.56;48.84;98140.09;4665966;29;102592;-96
2021/04/21 06:36:50;;;;;;;;;8.25;7.25;;;;;14.64;49.03;98153.31;4679531;29;103169;-96
2021/04/21 06:39:20;;;;;;;;;6.25;5.25;;;;;14.62;49.15;98155.47;4648019;29;102459;-96
2021/04/21 06:41:55;;;;;;;;;6.75;6.00;;;;;14.61;48.79;98151.09;4717709;29;102350;-96
2021/04/21 06:44:42;;;;;;;;;8.00;6.00;;;;;14.57;48.92;98141.75;4681889;29;102072;-96
2021/04/21 06:47:11;;;;;;;;;8.00;7.00;;;;;14.59;49.28;98143.16;4652802;29;104405;-96
2021/04/21 06:49:38;;;;;;;;;5.50;5.00;;;;;14.58;48.93;98146.97;4661783;29;103475;-96
2021/04/21 06:52:16;;;;;;;;;8.00;7.00;;;;;14.58;48.89;98144.25;4692225;29;102171;-96
2021/04/21 06:54:43;;;;;;;;;6.75;5.75;;;;;14.60;49.32;98150.25;4741958;29;102266;-96
2021/04/21 06:57:10;;;;;;;;;9.75;6.75;;;;;14.60;49.08;98141.25;4721697;29;103985;-96
2021/04/21 06:59:38;;;;;;;;;6.25;5.50;;;;;14.61;48.86;98143.75;4729552;29;104012;-96
2021/04/21 07:02:05;;;;;;;;;9.00;8.25;;;;;14.62;48.78;98144.59;4775750;29;102352;-96
2021/04/21 07:04:35;;;;;;;;;6.25;5.50;;;;;14.62;48.99;98150.03;4751617;29;104898;-96
2021/04/21 07:07:02;;;;;;;;;8.50;6.00;;;;;14.60;48.90;98141.25;4737766;29;102132;-96
2021/04/21 07:09:30;;;;;;;;;9.50;7.50;;;;;14.62;48.91;98145.41;4759908;29;102893;-96
2021/04/21 07:12:00;;;;;;;;;7.50;6.25;;;;;14.66;49.25;98149.31;4719808;29;101926;-96
2021/04/21 07:14:29;;;;;;;;;6.75;6.00;;;;;14.64;48.70;98153.31;4723797;29;102115;-96
2021/04/21 07:16:58;;;;;;;;;5.00;4.00;;;;;14.60;49.14;98147.53;4738988;29;102508;-96
2021/04/21 07:19:27;;;;;;;;;6.00;3.75;;;;;14.63;49.03;98148.97;4733151;29;107320;-96
2021/04/21 07:21:54;;;;;;;;;8.00;5.75;;;;;14.68;48.64;98160.75;4767122;29;102220;-96
2021/04/21 07:24:33;;;;;;;;;7.50;5.00;;;;;14.67;49.13;98163.75;4738909;29;102384;-96
2021/04/21 07:27:07;;;;;;;;;7.00;6.25;;;;;14.64;48.73;98153.31;4765018;29;103749;-96
2021/04/21 07:29:45;;;;;;;;;10.00;7.50;;;;;14.61;49.07;98145.63;4746951;29;103826;-96
2021/04/21 07:32:24;;;;;;;;;7.75;5.75;;;;;14.66;48.78;98152.03;4694829;29;103101;-96
2021/04/21 07:35:02;;;;;;;;;6.50;5.50;;;;;14.66;48.96;98153.91;4711886;29;102738;-96
2021/04/21 07:37:37;;;;;;;;;6.75;6.25;;;;;14.63;48.83;98152.50;4723312;29;102196;-96
2021/04/21 07:40:33;;;;;;;;;6.00;5.25;;;;;14.73;48.71;98162.78;4739175;29;108005;-96
2021/04/21 07:43:06;;;;;;;;;6.00;5.50;;;;;14.74;48.52;98165.28;4739589;29;104316;-96
2021/04/21 07:45:45;;;;;;;;;7.75;6.25;;;;;14.74;48.64;98164.44;4665345;29;103538;-96
2021/04/21 07:48:31;;;;;;;;;6.00;6.00;;;;;14.75;48.76;98160.66;4763385;29;102786;-96
2021/04/21 07:51:26;;;;;;;;;7.00;6.25;;;;;14.75;48.39;98155.22;4768766;29;107712;-96
2021/04/21 07:54:01;;;;;;;;;5.25;5.00;;;;;14.75;49.06;98155.22;4719301;29;102306;-96
2021/04/21 07:56:36;;;;;;;;;7.50;7.00;;;;;14.69;48.58;98140.66;4734388;29;102337;-96
2021/04/21 07:59:22;;;;;;;;;5.00;5.00;;;;;14.72;48.21;98144.81;4751748;29;102270;-96
2021/04/21 08:01:52;;;;;;;;;6.75;6.75;;;;;14.68;48.60;98133.56;4722078;29;104123;-96
2021/04/21 08:04:21;;;;;;;;;7.50;6.75;;;;;14.71;48.88;98141.25;4685181;29;102781;-96
2021/04/21 08:06:50;;;;;;;;;5.50;5.00;;;;;14.73;48.79;98146.44;4737453;29;102034;-96
2021/04/21 08:09:22;;;;;;;;;5.50;5.50;;;;;14.77;49.02;98146.81;4770320;29;103879;-96
2021/04/21 08:12:08;;;;;;;;;4.75;4.75;;;;;14.78;48.59;98149.28;4773724;29;105316;-96
2021/04/21 08:14:39;;;;;;;;;7.00;6.25;;;;;14.74;48.37;98139.94;4653091;29;102666;-96
2021/04/21 08:17:07;;;;;;;;;11.25;7.50;;;;;14.76;48.64;98134.28;4761635;29;103309;-96
2021/04/21 08:19:38;;;;;;;;;7.25;5.00;;;;;14.76;48.80;98137.00;4729325;29;102567;-96
2021/04/21 08:22:06;;;;;;;;;8.50;7.00;;;;;14.71;48.78;98133.09;4721844;29;110422;-96
2021/04/21 08:24:44;;;;;;;;;8.25;6.25;;;;;14.75;48.64;98133.44;4753002;29;102200;-96
2021/04/21 08:27:15;;;;;;;;;5.50;5.25;;;;;14.78;48.66;98143.84;4750101;29;103333;-96
2021/04/21 08:29:43;;;;;;;;;7.75;6.00;;;;;14.74;48.71;98138.06;4767756;29;103383;-96
2021/04/21 08:32:18;;;;;;;;;3.75;3.75;;;;;14.78;48.96;98146.56;4774800;29;104020;-96
2021/04/21 08:34:47;;;;;;;;;6.50;6.00;;;;;14.83;48.75;98148.56;4767790;29;102466;-96
2021/04/21 08:37:14;;;;;;;;;7.50;6.00;;;;;14.73;48.64;98130.94;4775197;29;102006;-96
2021/04/21 08:39:41;;;;;;;;;5.75;4.75;;;;;14.83;49.01;98149.41;4765217;29;104027;-96
2021/04/21 08:42:09;;;;;;;;;6.25;6.25;;;;;14.74;48.46;98131.78;4764176;29;104435;-96
2021/04/21 08:44:41;;;;;;;;;6.75;5.00;;;;;14.76;48.74;98139.72;4793785;29;102855;-96
2021/04/21 08:47:13;;;;;;;;;5.25;4.00;;;;;14.82;48.35;98147.72;4750268;29;102891;-96
2021/04/21 08:49:41;;;;;;;;;4.25;4.00;;;;;14.80;48.86;98146.34;4779402;29;102497;-96
2021/04/21 08:52:07;;;;;;;;;4.50;4.50;;;;;14.79;48.60;98139.22;4774243;29;104104;-96
2021/04/21 08:54:35;;;;;;;;;5.00;4.00;;;;;14.84;49.04;98148.34;4760470;29;102459;-96
2021/04/21 08:57:03;;;;;;;;;5.75;5.75;;;;;14.77;48.73;98138.66;4740137;29;102401;-96
2021/04/21 08:59:30;;;;;;;;;7.50;5.75;;;;;14.80;48.77;98133.56;4732645;29;102246;-96
2021/04/21 09:01:57;;;;;;;;;6.00;6.00;;;;;14.78;48.47;98124.78;4747894;29;108113;-96
2021/04/21 09:04:25;;;;;;;;;6.75;5.00;;;;;14.78;48.21;98132.94;4766495;29;102267;-96
2021/04/21 09:06:51;;;;;;;;;6.50;5.00;;;;;14.84;48.86;98142.06;4761697;29;102389;-96
2021/04/21 09:09:19;;;;;;;;;4.75;4.75;;;;;14.89;48.49;98156.63;4774050;29;102217;-96
2021/04/21 09:11:46;;;;;;;;;5.25;4.75;;;;;14.85;48.63;98136.38;4777612;29;104119;-96
2021/04/21 09:14:14;;;;;;;;;6.25;6.00;;;;;14.90;48.96;98146.56;4771806;29;102288;-96
2021/04/21 09:16:41;;;;;;;;;4.00;4.00;;;;;14.85;48.53;98138.28;4774398;29;102536;-96
2021/04/21 09:19:10;;;;;;;;;6.75;5.00;;;;;14.90;48.54;98155.56;4775196;29;102250;-96
2021/04/21 09:21:38;;;;;;;;;6.00;5.00;;;;;14.92;48.49;98145.25;4776710;29;104029;-96
2021/04/21 09:24:26;;;;;;;;;5.50;5.00;;;;;14.91;48.56;98138.13;4772511;29;103664;-96
2021/04/21 09:26:54;;;;;;;;;4.75;4.75;;;;;14.94;48.77;98140.41;4778884;29;102010;-96
2021/04/21 09:29:27;;;;;;;;;5.25;5.25;;;;;14.91;48.17;98132.69;4770438;29;102320;-96
2021/04/21 09:32:07;;;;;;;;;7.00;5.00;;;;;14.92;48.63;98139.78;4772342;29;104028;-96
2021/04/21 09:34:58;;;;;;;;;6.25;6.00;;;;;14.96;48.45;98138.25;4708389;29;102462;-96
2021/04/21 09:37:25;;;;;;;;;4.00;3.50;;;;;14.92;48.43;98130.78;4767137;29;102174;-96
2021/04/21 09:39:52;;;;;;;;;4.00;4.00;;;;;14.96;48.16;98130.06;4775481;29;102665;-96
2021/04/21 09:42:28;;;;;;;;;5.00;5.00;;;;;14.90;48.43;98124.78;4778198;29;104211;-96
2021/04/21 09:44:54;;;;;;;;;5.50;4.75;;;;;14.98;48.71;98132.56;4791448;29;102506;-96
2021/04/21 09:47:21;;;;;;;;;6.50;5.00;;;;;14.97;48.06;98131.75;4775118;29;102331;-96
2021/04/21 09:49:54;;;;;;;;;6.00;4.25;;;;;14.98;48.82;98138.84;4778263;29;102139;-96
2021/04/21 09:52:21;;;;;;;;;4.00;4.00;;;;;15.00;48.51;98130.41;4773440;29;104152;-96
2021/04/21 09:54:50;;;;;;;;;6.00;5.00;;;;;14.96;48.43;98112.91;4786245;29;102849;-96
2021/04/21 09:57:26;;;;;;;;;7.00;4.50;;;;;14.96;48.14;98113.75;4787683;29;102407;-96
2021/04/21 10:00:07;;;;;;;;;4.50;4.50;;;;;14.98;48.58;98122.50;4801594;29;102635;-96
2021/04/21 10:02:34;;;;;;;;;5.25;4.25;;;;;15.01;48.47;98121.19;4788889;29;109051;-96
2021/04/21 10:05:29;;;;;;;;;2.75;2.75;;;;;14.99;48.65;98117.91;4798791;29;102645;-96
2021/04/21 10:08:15;;;;;;;;;4.00;4.00;;;;;15.03;48.44;98119.91;4714963;29;103527;-96
2021/04/21 10:10:44;;;;;;;;;3.25;3.25;;;;;15.03;48.08;98119.91;4677007;29;102419;-96
2021/04/21 10:13:19;;;;;;;;;4.00;4.00;;;;;15.00;48.24;98108.63;4795459;29;104358;-96
2021/04/21 10:16:07;;;;;;;;;4.75;4.00;;;;;14.99;48.23;98105.13;4782281;29;102456;-96
2021/04/21 10:18:34;;;;;;;;;3.50;3.50;;;;;15.04;48.58;98109.84;4782467;29;102594;-96
2021/04/21 10:21:01;;;;;;;;;4.00;3.00;;;;;15.02;47.99;98104.63;4797405;29;102175;-96
2021/04/21 10:23:29;;;;;;;;;4.00;4.00;;;;;15.02;48.49;98101.06;4793185;29;109316;-96
2021/04/21 10:26:03;;;;;;;;;4.00;4.00;;;;;15.03;48.68;98100.84;4792163;29;102250;-96
2021/04/21 10:28:32;;;;;;;;;5.25;5.00;;;;;15.01;48.67;98089.34;4792167;29;106946;-96
2021/04/21 10:31:01;;;;;;;;;4.25;3.75;;;;;15.07;48.70;98099.28;4782398;29;102896;-96
2021/04/21 10:33:30;;;;;;;;;5.00;5.00;;;;;15.07;48.23;98099.28;4779492;29;109122;-96
2021/04/21 10:35:57;;;;;;;;;4.00;4.00;;;;;15.08;48.48;98095.47;4784519;29;102967;-96
2021/04/21 10:38:25;;;;;;;;;4.75;4.00;;;;;15.02;48.09;98074.66;4797951;29;102281;-96
2021/04/21 10:41:36;;;;;;;;;4.50;4.00;;;;;15.10;48.24;98084.34;4763389;29;102262;-96
2021/04/21 10:44:13;;;;;;;;;3.50;3.25;;;;;15.10;48.60;98081.63;4732865;29;107837;-96
2021/04/21 10:47:09;;;;;;;;;5.00;4.75;;;;;15.08;48.35;98078.31;4752123;29;104051;-96
2021/04/21 10:49:48;;;;;;;;;5.00;4.50;;;;;15.12;48.36;98080.31;4770326;29;102436;-96
2021/04/21 10:52:27;;;;;;;;;2.75;2.50;;;;;15.12;48.60;98074.03;4779195;29;102575;-96
2021/04/21 10:55:07;;;;;;;;;3.25;3.25;;;;;15.09;48.32;98072.63;4786575;29;104064;-96
2021/04/21 10:57:42;;;;;;;;;5.25;3.75;;;;;15.08;48.43;98062.78;4774722;29;102945;-96
2021/04/21 11:00:14;;;;;;;;;3.75;3.75;;;;;15.14;48.35;98063.72;4765175;29;103497;-96
2021/04/21 11:02:42;;;;;;;;;4.00;3.00;;;;;15.13;48.07;98059.34;4767307;29;102522;-96
2021/04/21 11:05:13;;;;;;;;;5.50;4.50;;;;;15.15;48.26;98058.03;4796401;29;104180;-96
2021/04/21 11:07:42;;;;;;;;;5.50;4.00;;;;;15.15;48.35;98058.03;4783216;29;102704;-96
2021/04/21 11:10:29;;;;;;;;;4.25;4.00;;;;;15.13;48.19;98054.72;4795003;29;102608;-96
2021/04/21 11:12:56;;;;;;;;;4.25;4.25;;;;;15.12;48.15;98053.09;4764981;29;102518;-96
2021/04/21 11:15:47;;;;;;;;;5.75;4.00;;;;;15.17;47.91;98047.72;4780182;29;104017;-96
2021/04/21 11:18:17;;;;;;;;;4.00;4.00;;;;;15.18;47.91;98057.53;4667840;29;102673;-96
2021/04/21 11:20:46;;;;;;;;;5.25;4.25;;;;;15.18;48.50;98052.09;4780596;29;104234;-96
2021/04/21 11:26:27;;;;;;;;;3.00;3.00;;;;;15.21;48.23;98033.63;4736859;29;109018;-96
2021/04/21 11:29:21;;;;;;;;;6.00;4.00;;;;;15.18;48.44;98027.59;4791153;29;102425;-96
2021/04/21 11:31:52;;;;;;;;;5.00;4.00;;;;;15.25;48.03;98034.78;4731157;29;102644;-96
2021/04/21 11:34:32;;;;;;;;;4.75;4.75;;;;;15.27;48.06;98040.81;4792778;29;102857;-96
2021/04/21 11:37:25;;;;;;;;;4.00;3.50;;;;;15.26;48.25;98037.28;4792964;29;111931;-96
2021/04/21 11:39:56;;;;;;;;;3.00;3.00;;;;;15.22;47.82;98029.84;4712093;29;102276;-96
2021/04/21 11:42:44;;;;;;;;;4.75;4.00;;;;;15.28;48.25;98039.75;4788979;29;102797;-96
2021/04/21 11:45:14;;;;;;;;;4.25;3.00;;;;;15.28;48.25;98035.13;4737744;29;102871;-96
2021/04/21 11:47:52;;;;;;;;;5.00;4.00;;;;;15.29;48.24;98035.94;4770182;29;104262;-96
2021/04/21 11:50:25;;;;;;;;;3.75;3.00;;;;;15.33;48.47;98026.22;4778744;29;102721;-96
2021/04/21 11:52:57;;;;;;;;;4.25;4.25;;;;;15.33;48.40;98027.03;4781871;29;102568;-96
2021/04/21 11:55:24;;;;;;;;;3.25;3.25;;;;;15.38;47.84;98029.03;4787249;29;102570;-96
2021/04/21 11:57:53;;;;;;;;;3.25;3.00;;;;;15.38;47.83;98018.97;4777043;29;104117;-96
2021/04/21 12:00:24;;;;;;;;;4.25;4.00;;;;;15.41;47.95;98023.06;4792062;29;103809;-96
2021/04/21 12:02:52;;;;;;;;;4.00;4.00;;;;;15.40;48.01;98022.25;4777864;29;102159;-96
2021/04/21 12:05:23;;;;;;;;;3.00;3.00;;;;;15.42;48.19;98020.13;4791411;29;102341;-96
2021/04/21 12:07:49;;;;;;;;;3.50;3.00;;;;;15.43;47.78;98010.88;4774547;29;105297;-96
2021/04/21 12:10:17;;;;;;;;;3.75;3.75;;;;;15.46;48.01;98020.44;4775898;29;102650;-96
2021/04/21 12:12:45;;;;;;;;;4.75;3.50;;;;;15.45;48.01;98013.34;4783391;29;102243;-96
2021/04/21 12:15:13;;;;;;;;;5.00;4.50;;;;;15.44;47.63;98006.25;4797875;29;102296;-96
2021/04/21 12:17:54;;;;;;;;;3.00;2.00;;;;;15.51;47.82;98006.94;4798451;29;104360;-96
2021/04/21 12:20:26;;;;;;;;;5.25;3.75;;;;;15.54;47.95;98011.88;4775909;29;102510;-96
2021/04/21 12:22:53;;;;;;;;;4.50;3.75;;;;;15.54;47.88;98018.16;4752127;29;102231;-96
2021/04/21 12:25:25;;;;;;;;;4.00;3.00;;;;;15.55;47.77;98005.38;4797785;29;103007;-96
2021/04/21 12:27:53;;;;;;;;;4.00;3.75;;;;;15.51;47.85;97998.78;4789484;29;104045;-96
2021/04/21 12:30:24;;;;;;;;;5.00;4.00;;;;;15.54;47.76;98001.81;4794181;29;102548;-96
2021/04/21 12:33:09;;;;;;;;;3.75;3.00;;;;;15.51;47.85;98002.31;4784010;29;102404;-96
2021/04/21 12:35:36;;;;;;;;;3.00;3.00;;;;;15.54;47.79;98003.72;4777973;29;104849;-96
2021/04/21 12:38:04;;;;;;;;;3.75;3.00;;;;;15.49;47.82;98000.91;4763615;29;104055;-96
2021/04/21 12:40:32;;;;;;;;;3.50;3.50;;;;;15.53;47.89;98022.00;4785225;29;102363;-96
2021/04/21 12:43:15;;;;;;;;;3.00;3.00;;;;;15.52;48.12;98038.56;4786912;29;102645;-96
2021/04/21 12:45:44;;;;;;;;;5.00;4.00;;;;;15.52;48.03;98060.38;4699577;29;102593;-96
2021/04/21 12:48:26;;;;;;;;;3.75;3.00;;;;;15.48;48.01;98084.53;4791206;29;103628;-96
2021/04/21 12:50:57;;;;;;;;;3.75;3.00;;;;;15.47;47.48;98077.44;4785022;29;102114;-96
2021/04/21 12:53:31;;;;;;;;;3.75;3.00;;;;;15.46;47.83;98081.22;4795673;29;102730;-96
2021/04/21 12:56:08;;;;;;;;;2.75;2.75;;;;;15.48;47.88;98089.16;4773390;29;102574;-96
2021/04/21 12:58:39;;;;;;;;;2.75;2.75;;;;;15.45;47.74;98095.06;4760141;29;108953;-96